createdAt,value
2023-10-24T00:00:02.952Z,100159.19
2023-10-24T00:02:34.880Z,100128.66
2023-10-24T00:05:07.644Z,100122.28
2023-10-24T00:07:39.435Z,100111.84
2023-10-24T00:10:11.596Z,100122.28
2023-10-24T00:12:43.736Z,100120.47
2023-10-24T00:15:15.655Z,100110.03
2023-10-24T00:17:47.549Z,100121.28
2023-10-24T00:20:19.267Z,100123.00
2023-10-24T00:22:51.072Z,100123.81
2023-10-24T00:25:22.699Z,100113.22
2023-10-24T00:27:54.325Z,100112.38
2023-10-24T00:30:26.138Z,100098.44
2023-10-24T00:32:57.866Z,100094.78
2023-10-24T00:35:29.476Z,100100.78
2023-10-24T00:38:01.229Z,100119.91
2023-10-24T00:40:35.677Z,100100.66
2023-10-24T00:43:08.325Z,100095.38
2023-10-24T00:45:42.605Z,100098.84
2023-10-24T00:48:14.463Z,100083.13
2023-10-24T00:50:46.163Z,100093.56
2023-10-24T00:53:18.016Z,100078.72
2023-10-24T00:55:49.724Z,100061.16
2023-10-24T00:58:21.588Z,100087.19
2023-10-24T01:00:53.367Z,100061.94
2023-10-24T01:03:25.258Z,100053.06
2023-10-24T01:05:58.156Z,99962.56
2023-10-24T01:08:29.590Z,100079.19
2023-10-24T01:11:01.395Z,100058.22
2023-10-24T01:13:33.827Z,100057.28
2023-10-24T01:16:05.959Z,100056.44
2023-10-24T01:18:37.540Z,100062.53
2023-10-24T01:21:09.398Z,100052.97
2023-10-24T01:23:41.843Z,100030.28
2023-10-24T01:26:15.772Z,100072.16
2023-10-24T01:28:47.422Z,100054.72
2023-10-24T01:31:19.198Z,100059.88
2023-10-24T01:33:50.756Z,100045.88
2023-10-24T01:36:24.544Z,100059.81
2023-10-24T01:38:56.063Z,100037.88
2023-10-24T01:41:28.067Z,100026.50
2023-10-24T01:43:59.625Z,100005.47
2023-10-24T01:46:31.213Z,100014.19
2023-10-24T01:49:02.810Z,100031.38
2023-10-24T01:51:36.318Z,100017.41
2023-10-24T01:54:07.863Z,100010.16
2023-10-24T01:56:39.419Z,99997.09
2023-10-24T01:59:13.598Z,99987.38
2023-10-24T02:01:45.283Z,99972.47
2023-10-24T02:04:16.941Z,99927.13
2023-10-24T02:06:48.465Z,99953.09
2023-10-24T02:09:19.945Z,99959.31
2023-10-24T02:11:51.442Z,99937.34
2023-10-24T02:14:23.103Z,99934.88
2023-10-24T02:16:55.043Z,99930.56
2023-10-24T02:19:27.001Z,99953.22
2023-10-24T02:21:58.562Z,99906.34
2023-10-24T02:24:30.129Z,99944.72
2023-10-24T02:27:01.939Z,99952.69
2023-10-24T02:29:35.207Z,99955.25
2023-10-24T02:32:07.096Z,99946.38
2023-10-24T02:34:38.873Z,99921.13
2023-10-24T02:37:10.582Z,99955.88
2023-10-24T02:39:42.775Z,99927.00
2023-10-24T02:42:14.524Z,99923.53
2023-10-24T02:44:49.686Z,99911.16
2023-10-24T02:47:21.560Z,99905.03
2023-10-24T02:49:54.789Z,99886.66
2023-10-24T02:52:26.510Z,99895.38
2023-10-24T02:54:58.400Z,99882.22
2023-10-24T02:57:30.188Z,99881.47
2023-10-24T03:00:01.774Z,99894.28
2023-10-24T03:02:33.578Z,99891.78
2023-10-24T03:05:06.240Z,99887.44
2023-10-24T03:07:37.749Z,99872.66
2023-10-24T03:10:09.898Z,99882.22
2023-10-24T03:12:41.402Z,99892.66
2023-10-24T03:15:13.106Z,99874.25
2023-10-24T03:17:44.760Z,99878.47
2023-10-24T03:20:16.504Z,99872.31
2023-10-24T03:22:48.430Z,99851.41
2023-10-24T03:25:20.331Z,99865.09
2023-10-24T03:27:56.014Z,99830.34
2023-10-24T03:30:27.583Z,99855.50
2023-10-24T03:32:59.183Z,99811.16
2023-10-24T03:35:33.973Z,99841.56
2023-10-24T03:38:05.590Z,99852.84
2023-10-24T03:40:39.557Z,99825.69
2023-10-24T03:43:11.306Z,99830.13
2023-10-24T03:45:43.898Z,99849.25
2023-10-24T03:48:15.516Z,99858.75
2023-10-24T03:50:47.357Z,99838.66
2023-10-24T03:53:18.940Z,99835.13
2023-10-24T03:55:56.084Z,99840.19
2023-10-24T03:58:28.414Z,99838.28
2023-10-24T04:01:05.616Z,99838.97
2023-10-24T04:03:37.604Z,99815.53
2023-10-24T04:06:12.457Z,99820.66
2023-10-24T04:08:44.158Z,99809.19
2023-10-24T04:11:17.389Z,99812.59
2023-10-24T04:13:50.706Z,99809.97
2023-10-24T04:16:23.346Z,99800.25
2023-10-24T04:18:54.921Z,99791.59
2023-10-24T04:21:26.533Z,99800.41
2023-10-24T04:23:59.225Z,99817.91
2023-10-24T04:26:30.950Z,99792.59
2023-10-24T04:29:02.732Z,99811.66
2023-10-24T04:31:34.554Z,99780.97
2023-10-24T04:34:06.294Z,99773.06
2023-10-24T04:36:38.428Z,99783.16
2023-10-24T04:39:10.121Z,99776.38
2023-10-24T04:41:41.830Z,99752.84
2023-10-24T04:44:13.558Z,99779.69
2023-10-24T04:46:45.905Z,99779.41
2023-10-24T04:49:21.983Z,99732.22
2023-10-24T04:51:54.015Z,99768.66
2023-10-24T04:54:25.773Z,99670.44
2023-10-24T04:56:58.582Z,99723.50
2023-10-24T04:59:31.081Z,99734.53
2023-10-24T05:02:02.919Z,99741.41
2023-10-24T05:04:35.301Z,99750.19
2023-10-24T05:07:10.514Z,99741.13
2023-10-24T05:09:42.276Z,99732.44
2023-10-24T05:12:13.858Z,99742.81
2023-10-24T05:14:47.454Z,99752.34
2023-10-24T05:17:19.236Z,99749.13
2023-10-24T05:19:50.711Z,99753.22
2023-10-24T05:22:23.317Z,99729.78
2023-10-24T05:24:55.746Z,99749.91
2023-10-24T05:27:28.318Z,99770.69
2023-10-24T05:29:59.856Z,99771.41
2023-10-24T05:32:32.564Z,99767.13
2023-10-24T05:35:04.657Z,99762.72
2023-10-24T05:37:36.232Z,99763.25
2023-10-24T05:40:10.401Z,99746.72
2023-10-24T05:42:43.119Z,99761.63
2023-10-24T05:45:14.900Z,99764.94
2023-10-24T05:47:46.731Z,99755.34
2023-10-24T05:50:20.265Z,99716.00
2023-10-24T05:52:52.070Z,99701.09
2023-10-24T05:55:23.720Z,99758.50
2023-10-24T05:57:55.308Z,99743.66
2023-10-24T06:00:27.434Z,99788.00
2023-10-24T06:03:00.399Z,99760.09
2023-10-24T06:05:33.185Z,99752.22
2023-10-24T06:08:05.762Z,99769.56
2023-10-24T06:10:37.638Z,99764.28
2023-10-24T06:13:10.946Z,99750.84
2023-10-24T06:15:43.721Z,99740.19
2023-10-24T06:18:15.577Z,99727.16
2023-10-24T06:20:48.944Z,99745.38
2023-10-24T06:23:21.550Z,99749.66
2023-10-24T06:25:53.386Z,99756.59
2023-10-24T06:28:25.814Z,99747.94
2023-10-24T06:31:02.581Z,99752.94
2023-10-24T06:33:35.169Z,99731.78
2023-10-24T06:36:08.795Z,99702.22
2023-10-24T06:38:40.351Z,99724.00
2023-10-24T06:41:12.969Z,99718.84
2023-10-24T06:43:44.478Z,99734.50
2023-10-24T06:46:16.195Z,99719.13
2023-10-24T06:48:47.941Z,99709.78
2023-10-24T06:51:20.133Z,99736.56
2023-10-24T06:53:51.743Z,99712.94
2023-10-24T06:56:23.253Z,99706.44
2023-10-24T06:58:54.845Z,99713.22
2023-10-24T07:01:26.498Z,99700.16
2023-10-24T07:03:58.170Z,99720.13
2023-10-24T07:06:29.673Z,99707.13
2023-10-24T07:09:07.221Z,99705.50
2023-10-24T07:11:39.102Z,99707.19
2023-10-24T07:14:10.644Z,99698.53
2023-10-24T07:16:43.366Z,99701.81
2023-10-24T07:19:16.397Z,99698.94
2023-10-24T07:21:48.323Z,99714.44
2023-10-24T07:24:19.921Z,99676.13
2023-10-24T07:26:51.522Z,99646.72
2023-10-24T07:29:24.603Z,99719.75
2023-10-24T07:31:56.875Z,99735.53
2023-10-24T07:34:34.293Z,99728.41
2023-10-24T07:37:06.280Z,99749.31
2023-10-24T07:39:38.623Z,99687.78
2023-10-24T07:42:10.379Z,99719.75
2023-10-24T07:44:41.994Z,99713.50
2023-10-24T07:47:15.052Z,99713.34
2023-10-24T07:49:46.838Z,99706.34
2023-10-24T07:52:21.862Z,99689.59
2023-10-24T07:54:54.511Z,99706.78
2023-10-24T07:57:26.037Z,99712.00
2023-10-24T07:59:58.298Z,99704.81
2023-10-24T08:02:31.480Z,99692.81
2023-10-24T08:05:03.349Z,99731.81
2023-10-24T08:07:35.061Z,99723.78
2023-10-24T08:10:07.110Z,99699.41
2023-10-24T08:12:38.735Z,99707.81
2023-10-24T08:15:10.716Z,99724.63
2023-10-24T08:17:42.481Z,99703.09
2023-10-24T08:20:14.234Z,99695.94
2023-10-24T08:22:46.059Z,99696.69
2023-10-24T08:25:18.069Z,99691.94
2023-10-24T08:27:50.621Z,99698.94
2023-10-24T08:30:22.419Z,99678.66
2023-10-24T08:32:54.106Z,99686.25
2023-10-24T08:35:26.546Z,99682.72
2023-10-24T08:38:09.200Z,99621.88
2023-10-24T08:40:45.379Z,99669.13
2023-10-24T08:43:19.827Z,99707.66
2023-10-24T08:45:54.883Z,99652.81
2023-10-24T08:48:26.608Z,99668.81
2023-10-24T08:50:58.454Z,99682.56
2023-10-24T08:53:30.243Z,99668.31
2023-10-24T08:56:03.441Z,99679.25
2023-10-24T08:58:39.658Z,99685.25
2023-10-24T09:01:11.541Z,99696.16
2023-10-24T09:03:43.851Z,99666.53
2023-10-24T09:06:15.542Z,99668.41
2023-10-24T09:08:50.056Z,99671.53
2023-10-24T09:11:23.863Z,99616.19
2023-10-24T09:13:57.533Z,99669.69
2023-10-24T09:16:30.836Z,99667.09
2023-10-24T09:19:12.966Z,99666.47
2023-10-24T09:22:00.007Z,99682.75
2023-10-24T09:24:44.811Z,99676.34
2023-10-24T09:27:23.174Z,99567.34
2023-10-24T09:29:54.919Z,99693.38
2023-10-24T09:32:28.032Z,99680.19
2023-10-24T09:35:04.928Z,99657.97
2023-10-24T09:37:40.499Z,99667.66
2023-10-24T09:40:12.715Z,99648.56
2023-10-24T09:42:48.695Z,99682.09
2023-10-24T09:45:22.869Z,99654.47
2023-10-24T09:47:56.101Z,99687.94
2023-10-24T09:50:28.337Z,99671.88
2023-10-24T09:53:03.603Z,99670.66
2023-10-24T09:55:35.924Z,99692.63
2023-10-24T09:58:11.414Z,99703.28
2023-10-24T10:00:43.609Z,99683.25
2023-10-24T10:03:16.707Z,99685.97
2023-10-24T10:05:54.314Z,99620.25
2023-10-24T10:08:29.633Z,99715.16
2023-10-24T10:11:05.215Z,99695.16
2023-10-24T10:13:56.373Z,99690.69
2023-10-24T10:17:10.234Z,99657.53
2023-10-24T10:20:06.214Z,99679.75
2023-10-24T10:22:59.196Z,99701.31
2023-10-24T10:25:30.774Z,99687.75
2023-10-24T10:28:05.798Z,99604.22
2023-10-24T10:30:52.577Z,99645.84
2023-10-24T10:33:31.441Z,99648.41
2023-10-24T10:36:03.987Z,99651.53
2023-10-24T10:38:47.931Z,99692.38
2023-10-24T10:41:23.783Z,99589.72
2023-10-24T10:43:56.278Z,99690.88
2023-10-24T10:46:30.877Z,99631.41
2023-10-24T10:49:07.139Z,99686.81
2023-10-24T10:51:40.930Z,99664.44
2023-10-24T10:54:39.288Z,99690.34
2023-10-24T10:57:17.918Z,99653.38
2023-10-24T11:00:16.426Z,99667.31
2023-10-24T11:03:17.002Z,99647.41
2023-10-24T11:05:49.871Z,99595.53
2023-10-24T11:08:25.093Z,99643.00
2023-10-24T11:10:58.965Z,99628.94
2023-10-24T11:13:45.559Z,99542.84
2023-10-24T11:16:34.857Z,99625.78
2023-10-24T11:19:19.922Z,99633.91
2023-10-24T11:21:53.621Z,99624.94
2023-10-24T11:24:25.271Z,99615.22
2023-10-24T11:26:58.168Z,99612.91
2023-10-24T11:29:31.214Z,99604.03
2023-10-24T11:32:03.535Z,99621.38
2023-10-24T11:34:35.329Z,99628.81
2023-10-24T11:37:09.404Z,99590.34
2023-10-24T11:39:44.131Z,99618.59
2023-10-24T11:42:16.240Z,99611.22
2023-10-24T11:44:47.880Z,99626.44
2023-10-24T11:47:19.702Z,99619.28
2023-10-24T11:49:51.405Z,99635.75
2023-10-24T11:52:24.618Z,99632.84
2023-10-24T11:54:57.086Z,99646.22
2023-10-24T11:57:28.793Z,99652.00
2023-10-24T12:00:00.444Z,99637.25
2023-10-24T12:02:40.086Z,99635.34
2023-10-24T12:05:11.971Z,99640.09
2023-10-24T12:07:44.018Z,99631.78
2023-10-24T12:10:15.765Z,99621.41
2023-10-24T12:12:47.692Z,99596.94
2023-10-24T12:15:19.740Z,99617.19
2023-10-24T12:17:51.976Z,99610.44
2023-10-24T12:20:24.098Z,99602.06
2023-10-24T12:22:55.946Z,99599.63
2023-10-24T12:25:29.757Z,99587.47
2023-10-24T12:28:02.694Z,99580.59
2023-10-24T12:30:34.499Z,99595.66
2023-10-24T12:33:06.496Z,99592.28
2023-10-24T12:35:38.063Z,99579.72
2023-10-24T12:38:10.224Z,99602.06
2023-10-24T12:40:43.241Z,99595.06
2023-10-24T12:43:15.036Z,99588.00
2023-10-24T12:45:47.283Z,99568.03
2023-10-24T12:48:20.242Z,99580.06
2023-10-24T12:50:52.173Z,99581.81
2023-10-24T12:53:24.254Z,99566.09
2023-10-24T12:55:57.893Z,99599.22
2023-10-24T12:58:29.636Z,99547.44
2023-10-24T13:01:01.539Z,99563.25
2023-10-24T13:03:33.179Z,99580.03
2023-10-24T13:06:05.969Z,99585.13
2023-10-24T13:08:37.456Z,99577.88
2023-10-24T13:11:09.144Z,99565.72
2023-10-24T13:13:40.861Z,99543.56
2023-10-24T13:16:12.881Z,99555.97
2023-10-24T13:18:44.525Z,99568.69
2023-10-24T13:21:19.404Z,99574.03
2023-10-24T13:23:50.886Z,99515.00
2023-10-24T13:26:23.806Z,99551.28
2023-10-24T13:28:56.200Z,99554.66
2023-10-24T13:31:28.184Z,99546.00
2023-10-24T13:36:34.406Z,99558.41
2023-10-24T13:39:07.113Z,99548.69
2023-10-24T13:41:38.938Z,99553.72
2023-10-24T13:44:10.807Z,99524.34
2023-10-24T13:46:45.560Z,99534.72
2023-10-24T13:49:17.183Z,99541.28
2023-10-24T13:51:50.834Z,99536.75
2023-10-24T13:54:22.594Z,99546.56
2023-10-24T13:56:54.374Z,99528.34
2023-10-24T13:59:27.754Z,99494.69
2023-10-24T14:01:59.266Z,99550.31
2023-10-24T14:04:31.103Z,99533.13
2023-10-24T14:07:02.996Z,99574.09
2023-10-24T14:09:34.773Z,99560.44
2023-10-24T14:12:07.350Z,99565.06
2023-10-24T14:14:38.962Z,99564.34
2023-10-24T14:17:10.703Z,99552.88
2023-10-24T14:19:42.757Z,99520.28
2023-10-24T14:22:17.074Z,99553.25
2023-10-24T14:24:53.736Z,99531.44
2023-10-24T14:27:25.486Z,99553.25
2023-10-24T14:29:57.040Z,99562.03
2023-10-24T14:32:28.660Z,99571.63
2023-10-24T14:35:00.322Z,99579.63
2023-10-24T14:37:32.216Z,99547.59
2023-10-24T14:40:04.280Z,99559.81
2023-10-24T14:42:35.970Z,99554.78
2023-10-24T14:45:08.289Z,99563.50
2023-10-24T14:47:41.245Z,99553.22
2023-10-24T14:50:12.975Z,99551.56
2023-10-24T14:52:44.538Z,99577.56
2023-10-24T14:55:17.115Z,99557.59
2023-10-24T14:57:48.699Z,99546.72
2023-10-24T15:00:23.240Z,99568.41
2023-10-24T15:02:55.061Z,99571.31
2023-10-24T15:05:26.619Z,99585.28
2023-10-24T15:07:58.375Z,99580.66
2023-10-24T15:10:30.588Z,99545.13
2023-10-24T15:13:02.106Z,99577.34
2023-10-24T15:15:35.037Z,99561.50
2023-10-24T15:18:06.944Z,99552.41
2023-10-24T15:20:39.236Z,99580.81
2023-10-24T15:23:10.837Z,99569.75
2023-10-24T15:25:42.434Z,99553.19
2023-10-24T15:28:15.325Z,99546.06
2023-10-24T15:30:47.306Z,99564.44
2023-10-24T15:33:19.353Z,99559.03
2023-10-24T15:35:59.915Z,99517.78
2023-10-24T15:38:31.481Z,99561.97
2023-10-24T15:41:03.082Z,99553.25
2023-10-24T15:43:34.636Z,99547.50
2023-10-24T15:46:09.093Z,99564.00
2023-10-24T15:48:40.789Z,99515.72
2023-10-24T15:51:12.746Z,99536.41
2023-10-24T15:53:44.803Z,99538.16
2023-10-24T15:56:17.799Z,99551.41
2023-10-24T15:58:49.358Z,99522.00
2023-10-24T16:01:23.030Z,99528.09
2023-10-24T16:03:56.135Z,99537.97
2023-10-24T16:06:28.019Z,99536.31
2023-10-24T16:08:59.840Z,99526.94
2023-10-24T16:11:31.574Z,99551.50
2023-10-24T16:14:04.440Z,99532.69
2023-10-24T16:16:37.461Z,99528.72
2023-10-24T16:19:11.417Z,99521.75
2023-10-24T16:21:43.444Z,99512.44
2023-10-24T16:24:16.388Z,99530.66
2023-10-24T16:26:48.057Z,99514.50
2023-10-24T16:29:20.000Z,99507.75
2023-10-24T16:31:51.659Z,99516.66
2023-10-24T16:34:23.213Z,99518.56
2023-10-24T16:36:54.803Z,99522.41
2023-10-24T16:39:26.392Z,99537.00
2023-10-24T16:41:58.200Z,99530.13
2023-10-24T16:44:30.402Z,99525.94
2023-10-24T16:47:02.453Z,99508.72
2023-10-24T16:49:34.323Z,99527.75
2023-10-24T16:52:06.690Z,99484.53
2023-10-24T16:54:38.228Z,99517.44
2023-10-24T16:57:10.052Z,99515.69
2023-10-24T16:59:42.464Z,99525.00
2023-10-24T17:02:14.201Z,99517.97
2023-10-24T17:04:45.823Z,99520.28
2023-10-24T17:07:18.547Z,99484.66
2023-10-24T17:09:50.197Z,99512.13
2023-10-24T17:12:21.713Z,99510.13
2023-10-24T17:14:54.605Z,99495.22
2023-10-24T17:17:26.283Z,99490.84
2023-10-24T17:19:57.975Z,99459.69
2023-10-24T17:22:34.379Z,99478.53
2023-10-24T17:25:06.587Z,99475.81
2023-10-24T17:27:45.686Z,99476.66
2023-10-24T17:30:25.831Z,99461.00
2023-10-24T17:32:57.827Z,99454.09
2023-10-24T17:35:29.911Z,99484.16
2023-10-24T17:38:02.524Z,99474.72
2023-10-24T17:40:34.355Z,99459.16
2023-10-24T17:43:07.001Z,99449.44
2023-10-24T17:45:40.288Z,99481.72
2023-10-24T17:48:12.726Z,99481.00
2023-10-24T17:50:44.730Z,99467.34
2023-10-24T17:53:16.436Z,99453.78
2023-10-24T17:55:48.433Z,99470.47
2023-10-24T17:58:20.527Z,99456.19
2023-10-24T18:00:52.556Z,99473.88
2023-10-24T18:03:25.301Z,99436.72
2023-10-24T18:05:57.245Z,99487.84
2023-10-24T18:08:29.304Z,99474.75
2023-10-24T18:11:00.887Z,99477.13
2023-10-24T18:13:32.670Z,99479.66
2023-10-24T18:16:04.616Z,99455.06
2023-10-24T18:18:37.449Z,99470.75
2023-10-24T18:21:16.206Z,99466.03
2023-10-24T18:23:50.272Z,99478.13
2023-10-24T18:26:25.923Z,99409.94
2023-10-24T18:28:57.590Z,99473.28
2023-10-24T18:31:32.382Z,99452.59
2023-10-24T18:34:05.576Z,99442.09
2023-10-24T18:36:37.754Z,99470.81
2023-10-24T18:39:10.991Z,99467.44
2023-10-24T18:41:43.329Z,99456.25
2023-10-24T18:44:15.792Z,99486.03
2023-10-24T18:46:47.909Z,99483.00
2023-10-24T18:49:19.749Z,99485.31
2023-10-24T18:51:51.535Z,99453.16
2023-10-24T18:54:23.069Z,99475.25
2023-10-24T18:56:54.577Z,99479.91
2023-10-24T18:59:27.885Z,99482.00
2023-10-24T19:01:59.820Z,99475.38
2023-10-24T19:04:36.305Z,99472.03
2023-10-24T19:07:09.576Z,99473.59
2023-10-24T19:09:42.781Z,99470.44
2023-10-24T19:12:15.919Z,99487.84
2023-10-24T19:14:47.855Z,99472.34
2023-10-24T19:17:19.824Z,99469.75
2023-10-24T19:19:52.847Z,99456.84
2023-10-24T19:22:26.743Z,99475.50
2023-10-24T19:24:59.282Z,99478.22
2023-10-24T19:27:31.389Z,99455.72
2023-10-24T19:30:04.763Z,99459.25
2023-10-24T19:32:36.733Z,99490.31
2023-10-24T19:35:09.820Z,99481.78
2023-10-24T19:37:46.609Z,99480.88
2023-10-24T19:40:18.674Z,99474.75
2023-10-24T19:42:51.804Z,99499.84
2023-10-24T19:45:23.645Z,99476.72
2023-10-24T19:48:06.888Z,99488.94
2023-10-24T19:50:46.511Z,99495.19
2023-10-24T19:53:19.012Z,99491.16
2023-10-24T19:55:56.381Z,99477.31
2023-10-24T19:58:34.678Z,99456.44
2023-10-24T20:01:08.126Z,99472.13
2023-10-24T20:06:13.815Z,99472.59
2023-10-24T20:08:46.311Z,99452.53
2023-10-24T20:12:31.509Z,99482.00
2023-10-24T20:14:10.214Z,99498.66
2023-10-24T20:16:44.491Z,99499.81
2023-10-24T20:19:20.818Z,99496.47
2023-10-24T20:21:52.894Z,99471.66
2023-10-24T20:24:24.768Z,99506.72
2023-10-24T20:26:59.205Z,99487.88
2023-10-24T20:29:30.998Z,99469.88
2023-10-24T20:32:04.103Z,99496.25
2023-10-24T20:34:35.875Z,99502.56
2023-10-24T20:37:07.705Z,99524.72
2023-10-24T20:39:39.410Z,99502.22
2023-10-24T20:42:11.343Z,99517.41
2023-10-24T20:44:43.206Z,99503.56
2023-10-24T20:47:15.552Z,99509.84
2023-10-24T20:49:47.793Z,99495.16
2023-10-24T20:52:20.787Z,99491.91
2023-10-24T20:54:53.129Z,99489.63
2023-10-24T20:57:24.848Z,99506.38
2023-10-24T20:59:57.490Z,99497.94
2023-10-24T21:02:29.374Z,99505.97
2023-10-24T21:05:02.508Z,99505.25
2023-10-24T21:07:34.166Z,99505.31
2023-10-24T21:10:06.431Z,99522.06
2023-10-24T21:12:38.077Z,99534.38
2023-10-24T21:15:12.261Z,99529.22
2023-10-24T21:17:45.301Z,99507.94
2023-10-24T21:20:19.488Z,99530.81
2023-10-24T21:22:51.524Z,99539.66
2023-10-24T21:25:23.119Z,99536.38
2023-10-24T21:27:54.796Z,99510.38
2023-10-24T21:30:26.424Z,99519.28
2023-10-24T21:32:58.137Z,99535.97
2023-10-24T21:35:30.116Z,99524.75
2023-10-24T21:38:03.858Z,99532.75
2023-10-24T21:40:36.195Z,99506.69
2023-10-24T21:43:07.936Z,99515.50
2023-10-24T21:45:40.025Z,99520.78
2023-10-24T21:48:11.559Z,99517.50
2023-10-24T21:50:44.252Z,99501.16
2023-10-24T21:53:15.716Z,99522.97
2023-10-24T21:55:47.949Z,99514.38
2023-10-24T21:58:19.455Z,99534.44
2023-10-24T22:00:51.371Z,99514.56
2023-10-24T22:03:23.845Z,99509.44
2023-10-24T22:05:55.433Z,99520.84
2023-10-24T22:08:27.109Z,99496.69
2023-10-24T22:10:58.690Z,99506.34
2023-10-24T22:13:31.007Z,99502.97
2023-10-24T22:16:03.113Z,99525.50
2023-10-24T22:18:34.762Z,99522.88
2023-10-24T22:21:08.874Z,99524.72
2023-10-24T22:23:40.530Z,99488.31
2023-10-24T22:26:12.192Z,99497.06
2023-10-24T22:28:44.013Z,99498.72
2023-10-24T22:31:15.962Z,99487.56
2023-10-24T22:33:47.550Z,99499.75
2023-10-24T22:36:19.457Z,99492.13
2023-10-24T22:38:51.176Z,99494.84
2023-10-24T22:41:22.954Z,99506.19
2023-10-24T22:43:54.513Z,99505.34
2023-10-24T22:46:26.268Z,99491.72
2023-10-24T22:48:58.209Z,99482.22
2023-10-24T22:51:31.832Z,99497.88
2023-10-24T22:54:05.494Z,99497.03
2023-10-24T22:56:38.316Z,99495.34
2023-10-24T22:59:09.867Z,99472.94
2023-10-24T23:01:41.660Z,99477.38
2023-10-24T23:04:14.005Z,99497.25
2023-10-24T23:06:45.713Z,99503.47
2023-10-24T23:09:17.357Z,99483.56
2023-10-24T23:11:49.912Z,99494.91
2023-10-24T23:14:21.854Z,99506.22
2023-10-24T23:16:53.730Z,99488.09
2023-10-24T23:19:25.645Z,99509.81
2023-10-24T23:21:57.214Z,99503.69
2023-10-24T23:24:28.974Z,99476.03
2023-10-24T23:27:00.795Z,99489.97
2023-10-24T23:29:32.688Z,99500.31
2023-10-24T23:32:05.188Z,99476.88
2023-10-24T23:34:36.890Z,99479.41
2023-10-24T23:37:11.209Z,99494.13
2023-10-24T23:39:43.199Z,99502.75
2023-10-24T23:42:15.120Z,99484.53
2023-10-24T23:44:46.702Z,99487.84
2023-10-24T23:47:18.610Z,99473.13
2023-10-24T23:49:50.451Z,99498.97
2023-10-24T23:52:22.048Z,99488.56
2023-10-24T23:54:54.267Z,99495.38
2023-10-24T23:57:26.077Z,99465.13
2023-10-24T23:59:58.313Z,99446.09
